Time;durP1;ratioP1;P1;durP2;ratioP2;P2;SDS_P1;SDS_P2;PMS_P1;PMS_P2;Temp;Humidity;BMP_temperature;BMP_pressure;BME280_temperature;BME280_humidity;BME280_pressure;Samples;Min_cycle;Max_cycle;Signal;HPM_P1;HPM_P2
2021/12/31 00:00:55;;;;;;;7.47;0.50;;;28.60;99.90;;;;;;4981798;28;20291;-71
2021/12/31 00:03:23;;;;;;;2.10;0.40;;;28.80;99.90;;;;;;5012712;28;20182;-72
2021/12/31 00:05:51;;;;;;;2.37;0.70;;;29.00;99.90;;;;;;5012678;28;20182;-69
2021/12/31 00:08:19;;;;;;;0.70;0.40;;;29.50;99.90;;;;;;5011232;28;20620;-70
2021/12/31 00:10:46;;;;;;;1.65;0.60;;;29.30;99.90;;;;;;5009595;28;20572;-71
2021/12/31 00:13:14;;;;;;;1.43;0.30;;;29.50;99.90;;;;;;4992718;28;20208;-71
2021/12/31 00:15:42;;;;;;;3.70;0.50;;;29.90;99.90;;;;;;4975524;28;20193;-70
2021/12/31 00:18:10;;;;;;;6.97;0.43;;;30.10;99.90;;;;;;4992817;28;20167;-70
2021/12/31 00:20:40;;;;;;;6.17;0.80;;;30.00;99.90;;;;;;4993238;28;20226;-69
2021/12/31 00:23:08;;;;;;;3.20;0.70;;;30.00;99.90;;;;;;5012313;28;20182;-71
2021/12/31 00:25:39;;;;;;;2.53;0.63;;;29.90;99.90;;;;;;5012015;28;20185;-70
2021/12/31 00:28:07;;;;;;;2.00;0.40;;;29.70;99.90;;;;;;5012451;28;20620;-69
2021/12/31 00:30:36;;;;;;;1.17;0.40;;;29.10;99.90;;;;;;4993825;28;20276;-69
2021/12/31 00:33:07;;;;;;;3.93;0.50;;;29.10;99.90;;;;;;5012078;28;20204;-70
2021/12/31 00:35:35;;;;;;;2.87;0.77;;;29.30;99.90;;;;;;5012187;28;20178;-70
2021/12/31 00:38:03;;;;;;;5.20;0.97;;;29.70;99.90;;;;;;4994607;28;20182;-70
2021/12/31 00:40:31;;;;;;;2.63;0.63;;;30.10;99.90;;;;;;4992318;28;20236;-70
2021/12/31 00:42:59;;;;;;;2.37;0.40;;;30.20;99.90;;;;;;5012222;28;20272;-70
2021/12/31 00:45:27;;;;;;;2.03;0.40;;;30.40;99.90;;;;;;4994366;28;20244;-71
2021/12/31 00:47:56;;;;;;;2.93;0.53;;;29.40;99.90;;;;;;4996217;28;20273;-70
2021/12/31 00:50:24;;;;;;;3.53;0.40;;;29.60;99.90;;;;;;4992224;28;20210;-70
2021/12/31 00:52:52;;;;;;;1.93;0.50;;;29.90;99.90;;;;;;5010605;28;20193;-70
2021/12/31 00:55:19;;;;;;;2.73;0.47;;;30.50;99.90;;;;;;5011759;28;20212;-71
2021/12/31 00:57:48;;;;;;;2.67;0.50;;;29.60;99.90;;;;;;5011862;28;20192;-70
2021/12/31 01:00:16;;;;;;;0.67;0.30;;;29.80;99.90;;;;;;5011631;28;20193;-70
2021/12/31 01:02:46;;;;;;;5.30;0.40;;;30.20;99.90;;;;;;4994215;28;20199;-70
2021/12/31 01:05:14;;;;;;;2.17;0.73;;;31.20;99.90;;;;;;4991999;28;20183;-70
2021/12/31 01:07:43;;;;;;;0.90;0.43;;;31.20;99.90;;;;;;5005267;28;20197;-71
2021/12/31 01:10:14;;;;;;;1.50;0.47;;;31.40;99.90;;;;;;5009848;28;20187;-70
2021/12/31 01:12:42;;;;;;;1.60;0.63;;;32.30;99.90;;;;;;5001540;28;20186;-70
2021/12/31 01:15:33;;;;;;;2.30;0.50;;;32.30;99.90;;;;;;5003085;28;20181;-70
2021/12/31 01:18:16;;;;;;;1.75;0.45;;;31.60;99.90;;;;;;4992040;28;20182;-69
2021/12/31 01:20:44;;;;;;;3.15;0.93;;;31.40;99.90;;;;;;4976644;28;20190;-70
2021/12/31 01:23:15;;;;;;;0.77;0.30;;;31.40;99.90;;;;;;5011545;28;20178;-70
2021/12/31 01:25:43;;;;;;;1.35;0.30;;;31.30;99.90;;;;;;5011508;28;20224;-71
2021/12/31 01:28:10;;;;;;;1.80;0.40;;;31.10;99.90;;;;;;5004923;28;20221;-70
2021/12/31 01:30:40;;;;;;;2.35;0.25;;;31.20;99.90;;;;;;4991653;28;20280;-71
2021/12/31 01:33:08;;;;;;;0.45;0.20;;;31.70;99.90;;;;;;4992094;28;20178;-70
2021/12/31 01:35:35;;;;;;;0.57;0.32;;;31.90;99.90;;;;;;4992321;28;20189;-71
2021/12/31 01:38:03;;;;;;;0.97;0.37;;;31.70;97.90;;;;;;4996323;28;20309;-70
2021/12/31 01:40:31;;;;;;;4.80;0.63;;;31.70;99.90;;;;;;5008406;28;20190;-71
2021/12/31 01:42:59;;;;;;;0.32;0.30;;;32.00;99.90;;;;;;5008238;28;20182;-69
2021/12/31 01:45:30;;;;;;;0.70;0.40;;;32.30;99.20;;;;;;5000422;28;20176;-70
2021/12/31 01:48:06;;;;;;;0.57;0.25;;;32.40;99.90;;;;;;4999710;28;20201;-70
2021/12/31 01:50:34;;;;;;;1.50;0.35;;;32.80;99.90;;;;;;4998169;28;20202;-71
2021/12/31 01:53:02;;;;;;;0.90;0.25;;;32.80;99.90;;;;;;5001089;28;20187;-70
2021/12/31 01:55:32;;;;;;;4.00;0.40;;;33.00;99.90;;;;;;5020162;28;20269;-69
2021/12/31 01:58:02;;;;;;;0.13;0.10;;;32.40;99.80;;;;;;5010918;28;20192;-69
2021/12/31 02:00:30;;;;;;;1.00;0.23;;;31.90;96.90;;;;;;4995338;28;20960;-70
2021/12/31 02:03:00;;;;;;;2.60;0.30;;;31.60;97.10;;;;;;4995229;28;20186;-70
2021/12/31 02:05:28;;;;;;;0.90;0.30;;;31.50;96.80;;;;;;4996194;28;20182;-70
2021/12/31 02:07:56;;;;;;;2.40;0.40;;;32.10;95.30;;;;;;4995005;28;20632;-70
2021/12/31 02:10:23;;;;;;;0.68;0.40;;;32.50;94.50;;;;;;5012055;28;20178;-71
2021/12/31 02:12:52;;;;;;;3.80;0.47;;;32.40;93.00;;;;;;4994962;28;20182;-70
2021/12/31 02:15:21;;;;;;;1.35;0.30;;;31.90;93.80;;;;;;4994857;28;20660;-70
2021/12/31 02:17:50;;;;;;;2.50;0.50;;;31.60;92.40;;;;;;4996860;28;20587;-69
2021/12/31 02:20:19;;;;;;;0.43;0.10;;;32.00;94.50;;;;;;5013713;28;20737;-69
2021/12/31 02:23:05;;;;;;;1.38;0.30;;;32.40;90.90;;;;;;5014530;28;20185;-69
2021/12/31 02:25:35;;;;;;;1.40;0.30;;;32.50;90.10;;;;;;5014596;28;20546;-71
2021/12/31 02:28:04;;;;;;;2.67;0.30;;;32.70;95.40;;;;;;5010230;28;20694;-71
2021/12/31 02:30:32;;;;;;;0.77;0.38;;;33.00;99.90;;;;;;4994371;28;20234;-70
2021/12/31 02:33:03;;;;;;;2.55;0.43;;;32.70;99.90;;;;;;5004883;28;20190;-70
2021/12/31 02:35:33;;;;;;;1.92;0.50;;;32.90;99.90;;;;;;5014188;28;20218;-68
2021/12/31 02:38:01;;;;;;;3.33;0.70;;;33.40;99.90;;;;;;5008836;28;20194;-68
2021/12/31 02:40:30;;;;;;;2.33;0.50;;;33.50;99.90;;;;;;4994702;28;20638;-69
2021/12/31 02:42:59;;;;;;;3.50;0.63;;;33.50;99.90;;;;;;4994568;28;20195;-69
2021/12/31 02:45:35;;;;;;;1.08;0.40;;;33.00;99.90;;;;;;4994606;28;20179;-70
2021/12/31 02:48:04;;;;;;;1.33;0.50;;;33.40;99.90;;;;;;4999329;28;20188;-70
2021/12/31 02:50:38;;;;;;;4.03;0.40;;;33.30;99.90;;;;;;5007139;28;20753;-70
2021/12/31 02:53:08;;;;;;;2.30;0.40;;;32.90;99.90;;;;;;5011625;28;20264;-70
2021/12/31 02:55:38;;;;;;;2.47;0.73;;;33.20;99.90;;;;;;5007004;28;20713;-71
2021/12/31 02:58:07;;;;;;;2.70;0.50;;;33.00;99.90;;;;;;5013798;28;20592;-71
2021/12/31 03:00:37;;;;;;;1.02;0.40;;;32.50;99.90;;;;;;5013758;28;20186;-71
2021/12/31 03:03:08;;;;;;;1.23;0.52;;;32.10;99.90;;;;;;5013634;28;20269;-70
2021/12/31 03:05:38;;;;;;;1.55;0.50;;;32.00;99.90;;;;;;5013603;28;20185;-70
2021/12/31 03:08:11;;;;;;;2.38;0.52;;;32.70;99.90;;;;;;5013693;28;20172;-70
2021/12/31 03:10:40;;;;;;;6.70;0.70;;;33.10;99.90;;;;;;5001056;28;20211;-71
2021/12/31 03:13:09;;;;;;;1.45;0.52;;;33.40;99.90;;;;;;5012224;28;20209;-70
2021/12/31 03:15:38;;;;;;;1.85;0.55;;;33.20;99.90;;;;;;5012004;28;20240;-72
2021/12/31 03:18:06;;;;;;;2.65;0.50;;;33.10;99.90;;;;;;5009666;28;20240;-71
2021/12/31 03:20:40;;;;;;;1.55;0.38;;;33.00;99.90;;;;;;4998791;28;20186;-70
2021/12/31 03:23:08;;;;;;;3.42;0.43;;;32.40;99.90;;;;;;4997164;28;20294;-70
2021/12/31 03:25:36;;;;;;;2.42;0.47;;;32.40;99.90;;;;;;5013292;28;20174;-71
2021/12/31 03:28:04;;;;;;;4.53;0.82;;;32.00;99.90;;;;;;5013328;28;20521;-71
2021/12/31 03:30:32;;;;;;;4.13;0.60;;;31.60;99.90;;;;;;5012828;28;20234;-72
2021/12/31 03:33:00;;;;;;;3.85;0.50;;;30.90;99.90;;;;;;4993587;28;20280;-71
2021/12/31 03:35:28;;;;;;;0.55;0.20;;;31.00;99.90;;;;;;4993551;28;20679;-71
2021/12/31 03:37:55;;;;;;;3.83;0.50;;;31.40;99.90;;;;;;4975744;28;20232;-71
2021/12/31 03:40:28;;;;;;;1.65;0.40;;;31.60;99.90;;;;;;4976695;28;20218;-72
2021/12/31 03:42:55;;;;;;;1.73;0.50;;;31.90;99.90;;;;;;4993718;28;20195;-73
2021/12/31 03:45:23;;;;;;;1.75;0.50;;;32.30;99.90;;;;;;4993393;28;20203;-72
2021/12/31 03:47:51;;;;;;;2.50;0.50;;;32.10;99.90;;;;;;4993283;28;20777;-72
2021/12/31 03:50:19;;;;;;;1.85;0.38;;;31.60;99.90;;;;;;4993202;28;20182;-72
2021/12/31 03:52:47;;;;;;;1.83;0.40;;;31.70;99.90;;;;;;5010805;28;20256;-72
2021/12/31 03:55:14;;;;;;;1.13;0.30;;;32.30;99.90;;;;;;5012748;28;20589;-72
2021/12/31 03:57:42;;;;;;;2.10;0.40;;;32.60;99.90;;;;;;5009856;28;20183;-71
2021/12/31 04:00:11;;;;;;;2.03;0.40;;;32.60;99.90;;;;;;5010374;28;20570;-71
2021/12/31 04:02:39;;;;;;;4.45;0.82;;;32.20;99.90;;;;;;4992917;28;20210;-72
2021/12/31 04:05:07;;;;;;;2.33;0.60;;;32.20;99.90;;;;;;4991784;28;20607;-71
2021/12/31 04:07:35;;;;;;;2.03;0.40;;;32.40;99.90;;;;;;4993562;28;20548;-72
2021/12/31 04:10:03;;;;;;;4.00;0.75;;;32.60;99.90;;;;;;4993107;28;20183;-71
2021/12/31 04:12:31;;;;;;;4.50;0.80;;;32.40;99.90;;;;;;4992983;28;20676;-71
2021/12/31 04:14:59;;;;;;;5.88;0.47;;;32.40;99.90;;;;;;4993160;28;20615;-70
2021/12/31 04:17:26;;;;;;;1.77;0.43;;;32.40;99.90;;;;;;4975443;28;20604;-71
2021/12/31 04:19:56;;;;;;;1.85;0.85;;;32.60;99.90;;;;;;5003322;28;20186;-71
2021/12/31 04:22:25;;;;;;;0.88;0.57;;;32.50;99.90;;;;;;4992544;28;20759;-72
2021/12/31 04:24:53;;;;;;;1.05;0.43;;;32.50;99.90;;;;;;4992784;28;20183;-72
2021/12/31 04:27:22;;;;;;;2.30;0.45;;;32.20;99.90;;;;;;4992544;28;20237;-71
2021/12/31 04:29:52;;;;;;;0.85;0.35;;;32.40;99.90;;;;;;4992466;28;20668;-72
2021/12/31 04:32:24;;;;;;;2.03;0.30;;;32.60;99.90;;;;;;4992471;28;20221;-72
2021/12/31 04:34:52;;;;;;;3.83;0.50;;;32.00;99.90;;;;;;4991515;28;20190;-72
2021/12/31 04:37:19;;;;;;;2.33;0.40;;;32.30;99.90;;;;;;4992615;28;20186;-72
2021/12/31 04:39:47;;;;;;;1.40;0.30;;;32.30;99.90;;;;;;4993003;28;20178;-72
2021/12/31 04:42:14;;;;;;;3.80;0.50;;;31.60;99.90;;;;;;5010209;28;20265;-71
2021/12/31 04:44:42;;;;;;;0.60;0.40;;;31.70;99.90;;;;;;5012408;28;20185;-71
2021/12/31 04:47:09;;;;;;;1.13;0.40;;;31.40;99.90;;;;;;5012400;28;20163;-71
2021/12/31 04:49:36;;;;;;;3.20;0.50;;;31.90;99.90;;;;;;5017359;28;20254;-72
2021/12/31 04:52:04;;;;;;;2.53;0.53;;;32.10;99.90;;;;;;5029413;28;20626;-71
2021/12/31 04:54:31;;;;;;;3.78;0.82;;;32.00;99.90;;;;;;5012703;28;20170;-73
2021/12/31 04:56:59;;;;;;;2.83;0.50;;;32.00;99.90;;;;;;4994862;28;20651;-73
2021/12/31 04:59:27;;;;;;;1.70;0.53;;;31.70;99.90;;;;;;5012210;28;20184;-72
2021/12/31 05:01:54;;;;;;;2.43;0.47;;;31.20;99.90;;;;;;4996142;28;20194;-71
2021/12/31 05:04:22;;;;;;;3.47;0.53;;;31.20;99.90;;;;;;4992565;28;20210;-72
2021/12/31 05:06:50;;;;;;;2.53;0.60;;;31.40;99.90;;;;;;4993026;28;20210;-71
2021/12/31 05:09:18;;;;;;;2.10;0.50;;;31.40;99.90;;;;;;4992435;28;20189;-72
2021/12/31 05:11:45;;;;;;;3.67;0.40;;;31.40;99.90;;;;;;5010132;28;20213;-71
2021/12/31 05:14:14;;;;;;;4.22;0.50;;;31.60;99.90;;;;;;5012055;28;20186;-71
2021/12/31 05:16:41;;;;;;;3.03;0.40;;;32.00;99.90;;;;;;4992290;28;20193;-71
2021/12/31 05:19:09;;;;;;;1.77;0.47;;;31.90;99.90;;;;;;4995796;28;20746;-71
2021/12/31 05:21:36;;;;;;;1.83;0.67;;;31.80;99.90;;;;;;4994680;28;20194;-70
2021/12/31 05:24:03;;;;;;;3.97;0.75;;;31.60;99.90;;;;;;4992468;28;20640;-71
2021/12/31 05:26:31;;;;;;;2.10;0.55;;;31.40;99.90;;;;;;4992359;28;20218;-73
2021/12/31 05:28:58;;;;;;;5.20;1.00;;;31.00;99.90;;;;;;4994967;28;20185;-71
2021/12/31 05:31:25;;;;;;;1.20;0.60;;;31.10;99.90;;;;;;5014264;28;20280;-72
2021/12/31 05:33:53;;;;;;;1.63;0.70;;;30.90;99.90;;;;;;5012216;28;20174;-71
2021/12/31 05:36:20;;;;;;;3.53;0.67;;;31.00;99.90;;;;;;5013692;28;20708;-71
2021/12/31 05:38:47;;;;;;;5.27;0.70;;;31.20;99.90;;;;;;5015675;28;20182;-72
2021/12/31 05:41:15;;;;;;;3.83;0.70;;;31.10;99.90;;;;;;4997120;28;20181;-72
2021/12/31 05:43:42;;;;;;;4.37;0.60;;;30.40;99.90;;;;;;5008794;28;20185;-72
2021/12/31 05:46:09;;;;;;;2.63;0.60;;;30.20;99.90;;;;;;5002935;28;20285;-71
2021/12/31 05:48:37;;;;;;;4.20;0.73;;;30.30;99.90;;;;;;4995986;28;20261;-73
2021/12/31 05:51:04;;;;;;;4.37;0.97;;;30.80;99.90;;;;;;5012137;28;20279;-70
2021/12/31 05:53:32;;;;;;;4.20;0.70;;;30.50;99.90;;;;;;5015793;28;20205;-71
2021/12/31 05:55:59;;;;;;;3.27;0.60;;;30.80;99.90;;;;;;5015182;28;20205;-71
2021/12/31 05:58:27;;;;;;;5.33;1.37;;;30.90;99.90;;;;;;5015241;28;20174;-69
2021/12/31 06:00:54;;;;;;;1.97;0.60;;;30.80;99.90;;;;;;5002675;28;20190;-71
2021/12/31 06:03:21;;;;;;;5.07;0.70;;;31.00;99.90;;;;;;4995309;28;20182;-71
2021/12/31 06:05:50;;;;;;;4.50;0.80;;;30.50;99.90;;;;;;5020175;28;20213;-70
2021/12/31 06:08:17;;;;;;;3.90;0.70;;;30.00;99.90;;;;;;5015006;28;20212;-70
2021/12/31 06:10:45;;;;;;;2.70;0.73;;;29.90;99.90;;;;;;5004335;28;20214;-71
2021/12/31 06:13:13;;;;;;;4.83;0.90;;;29.80;99.90;;;;;;4995640;28;20178;-72
2021/12/31 06:15:44;;;;;;;2.87;0.50;;;30.20;99.90;;;;;;5003060;28;20213;-71
2021/12/31 06:18:12;;;;;;;5.60;1.00;;;30.40;99.90;;;;;;4977762;28;20182;-71
2021/12/31 06:20:42;;;;;;;1.70;0.60;;;30.40;99.90;;;;;;4995194;28;20198;-72
2021/12/31 06:23:10;;;;;;;2.43;0.60;;;30.00;99.90;;;;;;4995391;28;20178;-72
2021/12/31 06:25:37;;;;;;;5.83;0.97;;;29.60;99.90;;;;;;4995073;28;20197;-73
2021/12/31 06:28:05;;;;;;;1.83;0.43;;;29.40;99.90;;;;;;4995403;28;20182;-73
2021/12/31 06:30:32;;;;;;;3.23;0.70;;;29.90;99.90;;;;;;4994718;28;20321;-70
2021/12/31 06:33:00;;;;;;;7.60;0.73;;;29.80;99.90;;;;;;5003775;28;20214;-71
2021/12/31 06:35:28;;;;;;;5.77;0.93;;;30.00;99.90;;;;;;5015354;28;20192;-71
2021/12/31 06:37:57;;;;;;;8.67;1.13;;;29.60;99.90;;;;;;5015781;28;20549;-72
2021/12/31 06:40:25;;;;;;;1.50;0.50;;;29.20;99.90;;;;;;5014994;28;20174;-72
2021/12/31 06:42:52;;;;;;;4.60;0.97;;;29.40;99.90;;;;;;5029326;28;20178;-72
2021/12/31 06:45:20;;;;;;;3.73;0.60;;;29.40;99.90;;;;;;5007300;28;20174;-72
2021/12/31 06:47:47;;;;;;;3.43;0.97;;;29.90;99.90;;;;;;4999669;28;20187;-71
2021/12/31 06:50:14;;;;;;;2.20;0.50;;;29.60;99.90;;;;;;5003278;28;20712;-72
2021/12/31 06:52:43;;;;;;;2.20;0.50;;;29.30;99.90;;;;;;5015614;28;20224;-73
2021/12/31 06:55:11;;;;;;;1.20;0.43;;;29.20;99.90;;;;;;4996420;28;20178;-72
2021/12/31 06:57:38;;;;;;;3.27;0.70;;;29.10;99.90;;;;;;4995659;28;21031;-73
2021/12/31 07:00:07;;;;;;;4.93;0.90;;;28.40;99.90;;;;;;5002646;28;20561;-73
2021/12/31 07:02:35;;;;;;;3.93;0.97;;;28.30;99.90;;;;;;5013111;28;20316;-72
2021/12/31 07:05:02;;;;;;;1.17;0.60;;;28.60;99.90;;;;;;5011173;28;20482;-73
2021/12/31 07:07:30;;;;;;;3.27;0.70;;;28.20;99.90;;;;;;5014499;28;20556;-72
2021/12/31 07:09:57;;;;;;;2.13;0.43;;;28.10;99.90;;;;;;5013572;28;20660;-73
2021/12/31 07:12:25;;;;;;;4.07;0.90;;;28.20;99.90;;;;;;5014388;28;20332;-72
2021/12/31 07:14:52;;;;;;;2.87;0.70;;;28.20;99.90;;;;;;5012497;28;20545;-71
2021/12/31 07:17:20;;;;;;;3.53;0.90;;;28.20;99.90;;;;;;5014588;28;20618;-73
2021/12/31 07:19:47;;;;;;;7.93;1.03;;;27.90;99.90;;;;;;4999642;28;20174;-72
2021/12/31 07:22:14;;;;;;;6.60;1.10;;;27.70;99.90;;;;;;5005060;28;20182;-71
2021/12/31 07:24:42;;;;;;;5.23;1.30;;;27.70;99.90;;;;;;4998274;28;20183;-72
2021/12/31 07:27:09;;;;;;;3.10;1.03;;;27.90;99.90;;;;;;4994356;28;20262;-72
2021/12/31 07:29:37;;;;;;;3.60;1.30;;;28.10;99.90;;;;;;4994494;28;20183;-72
2021/12/31 07:32:05;;;;;;;7.30;1.00;;;28.20;99.90;;;;;;4994640;28;20632;-72
2021/12/31 07:34:32;;;;;;;5.50;1.00;;;27.90;99.90;;;;;;5001669;28;20194;-70
2021/12/31 07:37:00;;;;;;;5.67;0.90;;;27.80;99.90;;;;;;5013891;28;20252;-72
2021/12/31 07:39:31;;;;;;;5.20;1.00;;;27.60;99.90;;;;;;5013969;28;20532;-71
2021/12/31 07:41:59;;;;;;;6.87;1.20;;;27.60;99.90;;;;;;5014299;28;20178;-72
2021/12/31 07:44:26;;;;;;;1.33;0.50;;;28.00;99.90;;;;;;5007316;28;20211;-72
2021/12/31 07:46:53;;;;;;;2.63;1.10;;;27.70;99.90;;;;;;4994632;28;20174;-72
2021/12/31 07:49:20;;;;;;;4.13;0.80;;;27.40;99.90;;;;;;4993878;28;20257;-70
2021/12/31 07:51:48;;;;;;;1.53;0.60;;;27.40;99.90;;;;;;4993591;28;20206;-71
2021/12/31 07:54:15;;;;;;;5.07;1.10;;;27.10;99.90;;;;;;5002006;28;20189;-74
2021/12/31 07:56:42;;;;;;;7.07;1.10;;;27.40;99.90;;;;;;5012658;28;20178;-73
2021/12/31 07:59:10;;;;;;;2.57;0.70;;;27.30;99.90;;;;;;4996287;28;20193;-72
2021/12/31 08:01:37;;;;;;;3.73;0.80;;;27.10;99.90;;;;;;5014073;28;20181;-72
2021/12/31 08:04:05;;;;;;;5.17;1.30;;;26.80;99.90;;;;;;5007488;28;20186;-72
2021/12/31 08:06:32;;;;;;;8.63;1.00;;;27.00;99.90;;;;;;4994232;28;20269;-71
2021/12/31 08:09:00;;;;;;;5.73;1.30;;;26.90;99.90;;;;;;4994226;28;20266;-73
2021/12/31 08:11:27;;;;;;;4.73;1.10;;;26.60;99.90;;;;;;4993878;28;20206;-72
2021/12/31 08:13:54;;;;;;;7.00;1.23;;;26.80;99.90;;;;;;4998157;28;20178;-73
2021/12/31 08:16:22;;;;;;;6.87;0.97;;;26.70;99.90;;;;;;5011371;28;20183;-72
2021/12/31 08:18:49;;;;;;;6.10;1.80;;;26.70;99.90;;;;;;5002756;28;20551;-72
2021/12/31 08:21:16;;;;;;;4.63;1.17;;;26.50;99.90;;;;;;5014527;28;20181;-72
2021/12/31 08:23:44;;;;;;;4.73;1.47;;;26.40;99.90;;;;;;5013701;28;20189;-72
2021/12/31 08:26:11;;;;;;;7.77;1.37;;;26.20;99.90;;;;;;5013420;28;20565;-73
2021/12/31 08:28:38;;;;;;;9.87;1.30;;;26.00;99.90;;;;;;4996512;28;20182;-72
2021/12/31 08:31:06;;;;;;;7.27;1.57;;;25.80;99.90;;;;;;4994428;28;20654;-73
2021/12/31 08:33:34;;;;;;;5.60;1.30;;;25.60;99.90;;;;;;4993907;28;20186;-71
2021/12/31 08:36:01;;;;;;;4.37;1.07;;;25.60;99.90;;;;;;4994740;28;20189;-72
2021/12/31 08:38:29;;;;;;;4.33;1.33;;;25.60;99.90;;;;;;4999277;28;20186;-71
2021/12/31 08:40:57;;;;;;;4.20;1.30;;;25.40;99.90;;;;;;4996089;28;20241;-72
2021/12/31 08:43:25;;;;;;;7.10;1.27;;;25.20;99.90;;;;;;5014099;28;20174;-72
2021/12/31 08:45:52;;;;;;;3.80;1.10;;;25.10;99.90;;;;;;5005482;28;20183;-72
2021/12/31 08:48:20;;;;;;;5.93;1.43;;;25.00;99.90;;;;;;5000684;28;20273;-71
2021/12/31 08:50:47;;;;;;;4.00;1.53;;;24.80;99.90;;;;;;5021055;28;20185;-71
2021/12/31 08:53:15;;;;;;;5.10;1.37;;;24.70;99.90;;;;;;5036469;28;20162;-74
2021/12/31 08:55:43;;;;;;;4.17;0.97;;;24.60;99.90;;;;;;5030994;28;20200;-72
2021/12/31 08:58:10;;;;;;;4.33;1.20;;;24.50;99.90;;;;;;5031018;28;20185;-73
2021/12/31 09:00:38;;;;;;;9.63;1.87;;;24.40;99.90;;;;;;5033125;28;20245;-72
2021/12/31 09:03:05;;;;;;;5.10;1.10;;;24.40;99.90;;;;;;5021061;28;20193;-72
2021/12/31 09:05:33;;;;;;;10.13;1.27;;;24.30;99.90;;;;;;5013060;28;20182;-72
2021/12/31 09:08:00;;;;;;;8.83;1.33;;;24.20;99.90;;;;;;5012576;28;20636;-72
2021/12/31 09:10:28;;;;;;;5.50;1.23;;;24.20;99.90;;;;;;4997282;28;20217;-73
2021/12/31 09:12:56;;;;;;;6.67;1.67;;;24.10;99.90;;;;;;4993641;28;20187;-72
2021/12/31 09:15:24;;;;;;;8.37;1.53;;;24.00;99.90;;;;;;4992707;28;20189;-72
2021/12/31 09:17:51;;;;;;;5.80;1.50;;;24.00;99.90;;;;;;4975685;28;20217;-73
2021/12/31 09:20:19;;;;;;;5.50;1.43;;;23.90;99.90;;;;;;5016324;28;20190;-73
2021/12/31 09:22:46;;;;;;;9.00;1.37;;;23.80;99.90;;;;;;5027464;28;20221;-71
2021/12/31 09:25:14;;;;;;;4.93;1.50;;;23.90;99.90;;;;;;5019707;28;20197;-72
2021/12/31 09:27:42;;;;;;;9.73;1.97;;;23.80;99.90;;;;;;5012591;28;20205;-73
2021/12/31 09:30:10;;;;;;;6.90;1.80;;;23.80;99.90;;;;;;5010263;28;20225;-73
2021/12/31 09:32:38;;;;;;;10.97;2.00;;;23.70;99.90;;;;;;5013662;28;20296;-73
2021/12/31 09:35:09;;;;;;;7.70;1.80;;;23.60;99.90;;;;;;5014574;28;20256;-74
2021/12/31 09:37:37;;;;;;;8.40;2.03;;;23.60;99.90;;;;;;5003887;28;20179;-73
2021/12/31 09:40:06;;;;;;;8.23;2.27;;;23.60;99.90;;;;;;5005244;28;20218;-72
2021/12/31 09:42:36;;;;;;;10.20;2.10;;;23.60;99.90;;;;;;5013534;28;20178;-73
2021/12/31 09:45:04;;;;;;;6.60;1.97;;;23.50;99.90;;;;;;5001422;28;20190;-74
2021/12/31 09:47:31;;;;;;;9.67;1.97;;;23.40;99.90;;;;;;4993990;28;20217;-75
2021/12/31 09:49:59;;;;;;;8.03;2.00;;;23.40;99.90;;;;;;4988558;28;20631;-74
2021/12/31 09:52:29;;;;;;;8.60;1.90;;;23.40;99.90;;;;;;5014180;28;20296;-75
2021/12/31 09:54:57;;;;;;;4.67;1.70;;;23.40;99.90;;;;;;5011038;28;20186;-76
2021/12/31 09:57:24;;;;;;;6.03;2.03;;;23.30;99.90;;;;;;5002530;28;20222;-75
2021/12/31 09:59:53;;;;;;;9.43;2.20;;;23.30;99.90;;;;;;5001413;28;20236;-76
2021/12/31 10:02:34;;;;;;;9.63;2.37;;;23.20;99.90;;;;;;5013202;28;20619;-75
2021/12/31 10:05:03;;;;;;;10.30;2.60;;;23.20;99.90;;;;;;4994444;28;20181;-74
2021/12/31 10:07:31;;;;;;;8.67;2.37;;;23.10;99.90;;;;;;4999338;28;20189;-74
2021/12/31 10:10:13;;;;;;;16.73;3.30;;;23.10;99.90;;;;;;5002313;28;20224;-72
2021/12/31 10:12:51;;;;;;;11.13;2.70;;;23.00;99.90;;;;;;5007111;28;20266;-72
2021/12/31 10:15:24;;;;;;;8.40;2.13;;;23.00;99.90;;;;;;5008836;28;20184;-74
2021/12/31 10:17:52;;;;;;;11.93;2.50;;;23.00;99.90;;;;;;5007377;28;20176;-74
2021/12/31 10:20:20;;;;;;;11.80;2.83;;;22.90;99.90;;;;;;5006453;28;20316;-73
2021/12/31 10:22:48;;;;;;;8.63;2.47;;;22.90;99.90;;;;;;5017380;28;20197;-74
2021/12/31 10:25:20;;;;;;;11.17;2.80;;;22.90;99.90;;;;;;5016869;28;20170;-73
2021/12/31 10:27:49;;;;;;;7.63;2.47;;;22.80;99.90;;;;;;4999282;28;20191;-74
2021/12/31 10:30:24;;;;;;;6.23;2.53;;;22.80;99.90;;;;;;5014991;28;20220;-75
2021/12/31 10:32:52;;;;;;;12.57;2.60;;;22.70;99.90;;;;;;5016752;28;20212;-76
2021/12/31 10:35:22;;;;;;;9.30;2.77;;;22.70;99.90;;;;;;5016162;28;20264;-74
2021/12/31 10:37:58;;;;;;;11.93;3.20;;;22.60;99.90;;;;;;4983751;28;20235;-75
2021/12/31 10:40:43;;;;;;;7.33;2.23;;;22.60;99.90;;;;;;4993393;28;20184;-73
2021/12/31 10:43:21;;;;;;;8.87;2.73;;;22.60;99.90;;;;;;5016352;28;20174;-74
2021/12/31 10:46:03;;;;;;;15.60;2.97;;;22.60;99.90;;;;;;5016540;28;20209;-75
2021/12/31 10:48:51;;;;;;;8.63;2.77;;;22.50;99.90;;;;;;5016720;28;20204;-73
2021/12/31 10:51:44;;;;;;;8.43;3.20;;;22.50;99.90;;;;;;4996285;28;20252;-74
2021/12/31 10:54:38;;;;;;;8.10;4.13;;;22.40;99.90;;;;;;4997072;28;20250;-75
2021/12/31 10:57:05;;;;;;;14.03;4.63;;;22.40;99.90;;;;;;4998369;28;20191;-74
2021/12/31 10:59:37;;;;;;;11.07;5.43;;;22.30;99.90;;;;;;5008690;28;20189;-75
2021/12/31 11:02:06;;;;;;;13.17;4.03;;;22.30;99.90;;;;;;4996692;28;20182;-75
2021/12/31 11:04:35;;;;;;;15.20;4.77;;;22.30;99.90;;;;;;4996524;28;20174;-75
2021/12/31 11:07:03;;;;;;;15.67;5.17;;;22.20;99.90;;;;;;4978999;28;20187;-74
2021/12/31 11:09:32;;;;;;;10.63;5.43;;;22.20;99.90;;;;;;5001681;28;20181;-74
2021/12/31 11:12:02;;;;;;;12.07;6.00;;;22.10;99.90;;;;;;5015955;28;20216;-74
2021/12/31 11:14:29;;;;;;;10.67;4.50;;;22.10;99.90;;;;;;5015750;28;20170;-74
2021/12/31 11:16:58;;;;;;;18.73;5.30;;;22.00;99.90;;;;;;5015858;28;20197;-73
2021/12/31 11:19:25;;;;;;;11.83;4.93;;;22.00;99.90;;;;;;5014070;28;20181;-74
2021/12/31 11:21:53;;;;;;;10.50;5.20;;;21.90;99.90;;;;;;5015765;28;20174;-75
2021/12/31 11:24:36;;;;;;;16.07;4.77;;;21.90;99.90;;;;;;5000839;28;20191;-74
2021/12/31 11:27:28;;;;;;;12.73;5.30;;;21.80;99.90;;;;;;4995456;28;20174;-75
2021/12/31 11:30:01;;;;;;;13.70;5.67;;;21.80;99.90;;;;;;5004429;28;20180;-73
2021/12/31 11:32:55;;;;;;;8.70;4.70;;;21.70;99.90;;;;;;5013965;28;20217;-72
2021/12/31 11:35:43;;;;;;;10.73;4.70;;;21.60;99.90;;;;;;4992009;28;20195;-75
2021/12/31 11:38:39;;;;;;;11.43;4.13;;;21.50;99.90;;;;;;4995991;28;20173;-75
2021/12/31 11:41:11;;;;;;;10.47;4.67;;;21.40;99.90;;;;;;5011654;28;20534;-75
2021/12/31 11:43:41;;;;;;;13.67;4.60;;;21.30;99.90;;;;;;5005759;28;20256;-72
2021/12/31 11:46:12;;;;;;;6.13;4.00;;;21.30;99.90;;;;;;4996030;28;20190;-72
2021/12/31 11:48:48;;;;;;;9.10;3.50;;;21.20;99.90;;;;;;4978346;28;20528;-73
2021/12/31 11:51:22;;;;;;;10.37;4.73;;;21.20;99.90;;;;;;5011762;28;20217;-72
2021/12/31 11:53:58;;;;;;;8.43;3.67;;;21.10;99.90;;;;;;5014475;28;20193;-73
2021/12/31 11:56:38;;;;;;;7.73;4.00;;;21.10;99.90;;;;;;5016992;28;20179;-74
2021/12/31 11:59:12;;;;;;;13.47;4.20;;;21.10;99.90;;;;;;5014799;28;20259;-74
2021/12/31 12:01:47;;;;;;;8.50;3.83;;;21.00;99.90;;;;;;5008408;28;20204;-76
2021/12/31 12:04:31;;;;;;;11.03;4.17;;;20.90;99.90;;;;;;4996633;28;20703;-77
2021/12/31 12:07:22;;;;;;;7.20;3.57;;;20.90;99.90;;;;;;4995984;28;20183;-75
2021/12/31 12:09:50;;;;;;;7.90;3.50;;;20.90;99.90;;;;;;4996750;28;20543;-74
2021/12/31 12:12:35;;;;;;;17.00;4.70;;;20.80;99.90;;;;;;4996087;28;20210;-72
2021/12/31 12:15:22;;;;;;;7.57;3.73;;;20.80;99.90;;;;;;4996579;28;20270;-75
2021/12/31 12:17:49;;;;;;;17.67;6.03;;;20.80;99.90;;;;;;4996214;28;20309;-74
2021/12/31 12:20:19;;;;;;;14.60;4.10;;;20.70;99.90;;;;;;5002718;28;20669;-75
2021/12/31 12:22:50;;;;;;;8.03;4.20;;;20.70;99.90;;;;;;5013693;28;20264;-74
2021/12/31 12:25:35;;;;;;;10.97;3.87;;;20.60;99.90;;;;;;5014671;28;20172;-75
2021/12/31 12:28:13;;;;;;;9.60;3.90;;;20.60;99.90;;;;;;5013154;28;20226;-74
2021/12/31 12:30:47;;;;;;;16.40;6.50;;;20.60;99.90;;;;;;4986351;28;20230;-76
2021/12/31 12:33:26;;;;;;;15.40;8.00;;;20.50;99.90;;;;;;4994205;28;20191;-75
2021/12/31 12:35:55;;;;;;;15.37;5.17;;;20.50;99.90;;;;;;4995355;28;20232;-74
2021/12/31 12:38:28;;;;;;;12.07;4.30;;;20.40;99.90;;;;;;4994708;28;20212;-73
2021/12/31 12:41:11;;;;;;;12.13;4.43;;;20.40;99.90;;;;;;4994558;28;20178;-72
2021/12/31 12:43:47;;;;;;;11.20;4.37;;;20.30;99.90;;;;;;5011719;28;20280;-74
2021/12/31 12:46:18;;;;;;;12.70;4.47;;;20.20;99.90;;;;;;5014412;28;20181;-71
2021/12/31 12:48:51;;;;;;;9.07;5.23;;;20.20;99.90;;;;;;5013646;28;20178;-74
2021/12/31 12:51:28;;;;;;;15.83;6.70;;;20.20;99.90;;;;;;5014238;28;20571;-74
2021/12/31 12:53:56;;;;;;;16.70;6.47;;;20.10;99.90;;;;;;5014406;28;20167;-75
2021/12/31 12:56:24;;;;;;;21.33;8.20;;;20.10;99.90;;;;;;5009380;28;20194;-75
2021/12/31 12:59:00;;;;;;;14.93;5.23;;;20.10;99.90;;;;;;4995328;28;20639;-74